sensor_id;sensor_type;location;lat;lon;timestamp;temperature;humidity
78522;SHT31;67819;51.972;5.678;2023-05-24T00:00:16;10.8;64.9
78522;SHT31;67819;51.972;5.678;2023-05-24T00:02:47;10.8;65.2
78522;SHT31;67819;51.972;5.678;2023-05-24T00:05:16;10.8;63.7
78522;SHT31;67819;51.972;5.678;2023-05-24T00:07:47;10.7;64.5
78522;SHT31;67819;51.972;5.678;2023-05-24T00:10:18;10.7;64.0
78522;SHT31;67819;51.972;5.678;2023-05-24T00:12:46;10.7;64.2
78522;SHT31;67819;51.972;5.678;2023-05-24T00:15:15;10.6;65.1
78522;SHT31;67819;51.972;5.678;2023-05-24T00:17:44;10.6;65.9
78522;SHT31;67819;51.972;5.678;2023-05-24T00:20:13;10.6;66.2
78522;SHT31;67819;51.972;5.678;2023-05-24T00:22:42;10.5;64.4
78522;SHT31;67819;51.972;5.678;2023-05-24T00:25:11;10.5;65.0
78522;SHT31;67819;51.972;5.678;2023-05-24T00:27:40;10.5;65.0
78522;SHT31;67819;51.972;5.678;2023-05-24T00:30:09;10.4;64.2
78522;SHT31;67819;51.972;5.678;2023-05-24T00:32:40;10.4;65.1
78522;SHT31;67819;51.972;5.678;2023-05-24T00:35:09;10.4;64.8
78522;SHT31;67819;51.972;5.678;2023-05-24T00:37:38;10.3;65.2
78522;SHT31;67819;51.972;5.678;2023-05-24T00:40:10;10.3;64.7
78522;SHT31;67819;51.972;5.678;2023-05-24T00:42:41;10.3;64.5
78522;SHT31;67819;51.972;5.678;2023-05-24T00:45:11;10.2;65.5
78522;SHT31;67819;51.972;5.678;2023-05-24T00:47:40;10.2;64.9
78522;SHT31;67819;51.972;5.678;2023-05-24T00:50:10;10.1;65.2
78522;SHT31;67819;51.972;5.678;2023-05-24T00:52:43;10.1;66.0
78522;SHT31;67819;51.972;5.678;2023-05-24T00:55:12;10.1;67.0
78522;SHT31;67819;51.972;5.678;2023-05-24T00:57:41;10.1;67.1
78522;SHT31;67819;51.972;5.678;2023-05-24T01:00:11;10.1;66.1
78522;SHT31;67819;51.972;5.678;2023-05-24T01:02:39;10.0;66.0
78522;SHT31;67819;51.972;5.678;2023-05-24T01:05:09;10.0;66.8
78522;SHT31;67819;51.972;5.678;2023-05-24T01:07:49;10.0;66.4
78522;SHT31;67819;51.972;5.678;2023-05-24T01:10:33;10.0;65.5
78522;SHT31;67819;51.972;5.678;2023-05-24T01:13:14;9.9;66.2
78522;SHT31;67819;51.972;5.678;2023-05-24T01:15:52;9.9;66.2
78522;SHT31;67819;51.972;5.678;2023-05-24T01:18:27;9.8;66.5
78522;SHT31;67819;51.972;5.678;2023-05-24T01:21:10;9.8;66.7
78522;SHT31;67819;51.972;5.678;2023-05-24T01:23:46;9.7;66.7
78522;SHT31;67819;51.972;5.678;2023-05-24T01:26:38;9.7;67.2
78522;SHT31;67819;51.972;5.678;2023-05-24T01:29:10;9.6;67.2
78522;SHT31;67819;51.972;5.678;2023-05-24T01:31:40;9.6;67.3
78522;SHT31;67819;51.972;5.678;2023-05-24T01:34:12;9.6;67.2
78522;SHT31;67819;51.972;5.678;2023-05-24T01:36:40;9.6;66.4
78522;SHT31;67819;51.972;5.678;2023-05-24T01:39:11;9.5;67.2
78522;SHT31;67819;51.972;5.678;2023-05-24T01:41:49;9.5;67.0
78522;SHT31;67819;51.972;5.678;2023-05-24T01:44:28;9.5;68.6
78522;SHT31;67819;51.972;5.678;2023-05-24T01:47:03;9.5;68.9
78522;SHT31;67819;51.972;5.678;2023-05-24T01:49:38;9.5;69.0
78522;SHT31;67819;51.972;5.678;2023-05-24T01:52:11;9.5;68.7
78522;SHT31;67819;51.972;5.678;2023-05-24T01:54:46;9.5;68.9
78522;SHT31;67819;51.972;5.678;2023-05-24T01:57:18;9.5;68.6
78522;SHT31;67819;51.972;5.678;2023-05-24T01:59:49;9.5;69.3
78522;SHT31;67819;51.972;5.678;2023-05-24T02:02:18;9.5;69.3
78522;SHT31;67819;51.972;5.678;2023-05-24T02:04:46;9.5;68.8
78522;SHT31;67819;51.972;5.678;2023-05-24T02:07:15;9.5;67.8
78522;SHT31;67819;51.972;5.678;2023-05-24T02:09:44;9.6;68.0
78522;SHT31;67819;51.972;5.678;2023-05-24T02:12:13;9.6;69.2
78522;SHT31;67819;51.972;5.678;2023-05-24T02:14:41;9.6;68.6
78522;SHT31;67819;51.972;5.678;2023-05-24T02:17:10;9.6;68.3
78522;SHT31;67819;51.972;5.678;2023-05-24T02:19:39;9.6;69.3
78522;SHT31;67819;51.972;5.678;2023-05-24T02:22:08;9.6;69.1
78522;SHT31;67819;51.972;5.678;2023-05-24T02:24:38;9.6;68.0
78522;SHT31;67819;51.972;5.678;2023-05-24T02:27:08;9.6;67.9
78522;SHT31;67819;51.972;5.678;2023-05-24T02:29:37;9.6;68.2
78522;SHT31;67819;51.972;5.678;2023-05-24T02:32:07;9.6;67.7
78522;SHT31;67819;51.972;5.678;2023-05-24T02:34:36;9.6;68.1
78522;SHT31;67819;51.972;5.678;2023-05-24T02:37:04;9.6;68.0
78522;SHT31;67819;51.972;5.678;2023-05-24T02:39:33;9.6;69.3
78522;SHT31;67819;51.972;5.678;2023-05-24T02:42:02;9.6;67.9
78522;SHT31;67819;51.972;5.678;2023-05-24T02:44:31;9.6;68.0
78522;SHT31;67819;51.972;5.678;2023-05-24T02:47:00;9.6;68.1
78522;SHT31;67819;51.972;5.678;2023-05-24T02:49:28;9.6;68.7
78522;SHT31;67819;51.972;5.678;2023-05-24T02:51:57;9.6;68.9
78522;SHT31;67819;51.972;5.678;2023-05-24T02:54:25;9.6;68.3
78522;SHT31;67819;51.972;5.678;2023-05-24T02:56:54;9.6;67.7
78522;SHT31;67819;51.972;5.678;2023-05-24T02:59:23;9.6;67.9
78522;SHT31;67819;51.972;5.678;2023-05-24T03:01:52;9.6;67.4
78522;SHT31;67819;51.972;5.678;2023-05-24T03:04:21;9.6;68.4
78522;SHT31;67819;51.972;5.678;2023-05-24T03:06:49;9.6;67.8
78522;SHT31;67819;51.972;5.678;2023-05-24T03:09:19;9.5;67.7
78522;SHT31;67819;51.972;5.678;2023-05-24T03:11:47;9.5;68.1
78522;SHT31;67819;51.972;5.678;2023-05-24T03:14:18;9.5;67.8
78522;SHT31;67819;51.972;5.678;2023-05-24T03:16:48;9.5;68.4
78522;SHT31;67819;51.972;5.678;2023-05-24T03:19:17;9.5;68.4
78522;SHT31;67819;51.972;5.678;2023-05-24T03:21:45;9.4;67.0
78522;SHT31;67819;51.972;5.678;2023-05-24T03:24:14;9.4;67.6
78522;SHT31;67819;51.972;5.678;2023-05-24T03:26:42;9.4;67.5
78522;SHT31;67819;51.972;5.678;2023-05-24T03:29:11;9.4;68.3
78522;SHT31;67819;51.972;5.678;2023-05-24T03:31:41;9.4;68.1
78522;SHT31;67819;51.972;5.678;2023-05-24T03:34:10;9.4;67.9
78522;SHT31;67819;51.972;5.678;2023-05-24T03:36:38;9.3;68.2
78522;SHT31;67819;51.972;5.678;2023-05-24T03:39:07;9.3;68.2
78522;SHT31;67819;51.972;5.678;2023-05-24T03:41:38;9.3;69.4
78522;SHT31;67819;51.972;5.678;2023-05-24T03:44:07;9.3;68.7
78522;SHT31;67819;51.972;5.678;2023-05-24T03:46:35;9.3;69.8
78522;SHT31;67819;51.972;5.678;2023-05-24T03:49:05;9.3;69.9
78522;SHT31;67819;51.972;5.678;2023-05-24T03:51:34;9.3;69.9
78522;SHT31;67819;51.972;5.678;2023-05-24T03:54:03;9.3;69.5
78522;SHT31;67819;51.972;5.678;2023-05-24T03:56:31;9.4;69.4
78522;SHT31;67819;51.972;5.678;2023-05-24T03:59:00;9.4;70.4
78522;SHT31;67819;51.972;5.678;2023-05-24T04:01:29;9.4;69.8
78522;SHT31;67819;51.972;5.678;2023-05-24T04:03:58;9.4;69.9
78522;SHT31;67819;51.972;5.678;2023-05-24T04:06:28;9.4;68.8
78522;SHT31;67819;51.972;5.678;2023-05-24T04:08:57;9.4;69.4
78522;SHT31;67819;51.972;5.678;2023-05-24T04:11:26;9.4;69.2
78522;SHT31;67819;51.972;5.678;2023-05-24T04:13:56;9.4;69.7
78522;SHT31;67819;51.972;5.678;2023-05-24T04:16:26;9.5;68.6
78522;SHT31;67819;51.972;5.678;2023-05-24T04:18:59;9.5;69.8
78522;SHT31;67819;51.972;5.678;2023-05-24T04:21:29;9.5;69.7
78522;SHT31;67819;51.972;5.678;2023-05-24T04:23:59;9.5;70.2
78522;SHT31;67819;51.972;5.678;2023-05-24T04:26:29;9.6;69.6
78522;SHT31;67819;51.972;5.678;2023-05-24T04:29:01;9.6;70.7
78522;SHT31;67819;51.972;5.678;2023-05-24T04:31:30;9.6;70.6
78522;SHT31;67819;51.972;5.678;2023-05-24T04:33:59;9.7;70.5
78522;SHT31;67819;51.972;5.678;2023-05-24T04:36:28;9.7;70.9
78522;SHT31;67819;51.972;5.678;2023-05-24T04:38:59;9.8;70.9
78522;SHT31;67819;51.972;5.678;2023-05-24T04:41:30;9.8;71.5
78522;SHT31;67819;51.972;5.678;2023-05-24T04:44:01;9.8;71.7
78522;SHT31;67819;51.972;5.678;2023-05-24T04:46:30;9.9;71.4
78522;SHT31;67819;51.972;5.678;2023-05-24T04:49:01;9.9;71.6
78522;SHT31;67819;51.972;5.678;2023-05-24T04:51:31;10.0;71.7
78522;SHT31;67819;51.972;5.678;2023-05-24T04:54:04;10.0;71.8
78522;SHT31;67819;51.972;5.678;2023-05-24T04:56:34;10.1;72.2
78522;SHT31;67819;51.972;5.678;2023-05-24T04:59:03;10.2;71.9
78522;SHT31;67819;51.972;5.678;2023-05-24T05:01:33;10.2;72.4
78522;SHT31;67819;51.972;5.678;2023-05-24T05:04:02;10.3;71.6
78522;SHT31;67819;51.972;5.678;2023-05-24T05:06:31;10.4;72.4
78522;SHT31;67819;51.972;5.678;2023-05-24T05:09:04;10.5;73.0
78522;SHT31;67819;51.972;5.678;2023-05-24T05:11:35;10.6;72.8
78522;SHT31;67819;51.972;5.678;2023-05-24T05:14:04;10.9;72.8
78522;SHT31;67819;51.972;5.678;2023-05-24T05:16:35;11.4;70.6
78522;SHT31;67819;51.972;5.678;2023-05-24T05:19:04;11.9;68.4
78522;SHT31;67819;51.972;5.678;2023-05-24T05:21:33;12.3;68.1
78522;SHT31;67819;51.972;5.678;2023-05-24T05:24:02;12.7;67.2
78522;SHT31;67819;51.972;5.678;2023-05-24T05:26:31;13.1;66.0
78522;SHT31;67819;51.972;5.678;2023-05-24T05:29:01;13.6;63.6
78522;SHT31;67819;51.972;5.678;2023-05-24T05:31:29;14.0;61.7
78522;SHT31;67819;51.972;5.678;2023-05-24T05:33:58;14.4;60.4
78522;SHT31;67819;51.972;5.678;2023-05-24T05:36:26;14.6;59.2
78522;SHT31;67819;51.972;5.678;2023-05-24T05:38:55;14.7;58.5
78522;SHT31;67819;51.972;5.678;2023-05-24T05:41:24;14.8;59.5
78522;SHT31;67819;51.972;5.678;2023-05-24T05:43:52;14.9;59.1
78522;SHT31;67819;51.972;5.678;2023-05-24T05:46:21;15.0;58.3
78522;SHT31;67819;51.972;5.678;2023-05-24T05:48:49;15.2;57.3
78522;SHT31;67819;51.972;5.678;2023-05-24T05:51:18;15.3;56.9
78522;SHT31;67819;51.972;5.678;2023-05-24T05:53:46;15.3;56.9
78522;SHT31;67819;51.972;5.678;2023-05-24T05:56:15;15.3;57.0
78522;SHT31;67819;51.972;5.678;2023-05-24T05:58:44;15.4;57.0
78522;SHT31;67819;51.972;5.678;2023-05-24T06:01:14;15.4;57.9
78522;SHT31;67819;51.972;5.678;2023-05-24T06:03:43;15.6;57.5
78522;SHT31;67819;51.972;5.678;2023-05-24T06:06:12;15.7;57.2
78522;SHT31;67819;51.972;5.678;2023-05-24T06:08:40;15.9;55.5
78522;SHT31;67819;51.972;5.678;2023-05-24T06:11:09;16.1;55.9
78522;SHT31;67819;51.972;5.678;2023-05-24T06:13:37;16.1;54.9
78522;SHT31;67819;51.972;5.678;2023-05-24T06:16:06;16.2;55.6
78522;SHT31;67819;51.972;5.678;2023-05-24T06:18:35;16.2;56.4
78522;SHT31;67819;51.972;5.678;2023-05-24T06:21:04;16.4;55.5
78522;SHT31;67819;51.972;5.678;2023-05-24T06:23:36;16.6;54.5
78522;SHT31;67819;51.972;5.678;2023-05-24T06:26:05;16.7;53.9
78522;SHT31;67819;51.972;5.678;2023-05-24T06:28:35;16.8;54.2
78522;SHT31;67819;51.972;5.678;2023-05-24T06:31:04;16.7;52.6
78522;SHT31;67819;51.972;5.678;2023-05-24T06:33:33;16.6;52.6
78522;SHT31;67819;51.972;5.678;2023-05-24T06:36:01;16.3;53.5
78522;SHT31;67819;51.972;5.678;2023-05-24T06:38:30;16.0;54.0
78522;SHT31;67819;51.972;5.678;2023-05-24T06:40:59;15.7;55.1
78522;SHT31;67819;51.972;5.678;2023-05-24T06:43:27;15.5;55.2
78522;SHT31;67819;51.972;5.678;2023-05-24T06:45:56;15.4;56.7
78522;SHT31;67819;51.972;5.678;2023-05-24T06:48:24;15.2;57.5
78522;SHT31;67819;51.972;5.678;2023-05-24T06:50:53;15.1;58.6
78522;SHT31;67819;51.972;5.678;2023-05-24T06:53:21;15.0;57.8
78522;SHT31;67819;51.972;5.678;2023-05-24T06:55:50;14.9;59.2
78522;SHT31;67819;51.972;5.678;2023-05-24T06:58:18;14.8;58.9
78522;SHT31;67819;51.972;5.678;2023-05-24T07:00:50;14.7;58.7
78522;SHT31;67819;51.972;5.678;2023-05-24T07:03:18;14.7;57.9
78522;SHT31;67819;51.972;5.678;2023-05-24T07:05:47;14.6;58.3
78522;SHT31;67819;51.972;5.678;2023-05-24T07:08:16;14.6;58.7
78522;SHT31;67819;51.972;5.678;2023-05-24T07:10:45;14.5;60.7
78522;SHT31;67819;51.972;5.678;2023-05-24T07:13:13;14.5;59.6
78522;SHT31;67819;51.972;5.678;2023-05-24T07:15:42;14.5;59.8
78522;SHT31;67819;51.972;5.678;2023-05-24T07:18:11;14.4;60.3
78522;SHT31;67819;51.972;5.678;2023-05-24T07:20:39;14.4;61.5
78522;SHT31;67819;51.972;5.678;2023-05-24T07:23:08;14.5;60.2
78522;SHT31;67819;51.972;5.678;2023-05-24T07:25:37;14.5;61.1
78522;SHT31;67819;51.972;5.678;2023-05-24T07:28:06;14.5;61.2
78522;SHT31;67819;51.972;5.678;2023-05-24T07:30:35;14.5;61.5
78522;SHT31;67819;51.972;5.678;2023-05-24T07:33:04;14.5;61.0
78522;SHT31;67819;51.972;5.678;2023-05-24T07:35:33;14.6;61.1
78522;SHT31;67819;51.972;5.678;2023-05-24T07:38:01;14.6;61.1
78522;SHT31;67819;51.972;5.678;2023-05-24T07:40:30;14.6;59.0
78522;SHT31;67819;51.972;5.678;2023-05-24T07:42:58;14.6;58.4
78522;SHT31;67819;51.972;5.678;2023-05-24T07:45:27;14.6;58.5
78522;SHT31;67819;51.972;5.678;2023-05-24T07:47:56;14.6;59.0
78522;SHT31;67819;51.972;5.678;2023-05-24T07:50:25;14.6;60.3
78522;SHT31;67819;51.972;5.678;2023-05-24T07:52:55;14.6;60.8
78522;SHT31;67819;51.972;5.678;2023-05-24T07:55:24;14.6;60.9
78522;SHT31;67819;51.972;5.678;2023-05-24T07:57:53;14.6;60.8
78522;SHT31;67819;51.972;5.678;2023-05-24T08:00:22;14.7;60.2
78522;SHT31;67819;51.972;5.678;2023-05-24T08:02:51;14.7;59.5
78522;SHT31;67819;51.972;5.678;2023-05-24T08:05:19;14.7;58.7
78522;SHT31;67819;51.972;5.678;2023-05-24T08:07:50;14.8;58.7
78522;SHT31;67819;51.972;5.678;2023-05-24T08:10:19;14.7;58.7
78522;SHT31;67819;51.972;5.678;2023-05-24T08:12:48;14.7;58.7
78522;SHT31;67819;51.972;5.678;2023-05-24T08:15:20;14.7;59.0
78522;SHT31;67819;51.972;5.678;2023-05-24T08:17:49;14.8;58.3
78522;SHT31;67819;51.972;5.678;2023-05-24T08:20:17;14.8;58.3
78522;SHT31;67819;51.972;5.678;2023-05-24T08:22:46;14.9;57.8
78522;SHT31;67819;51.972;5.678;2023-05-24T08:25:15;15.0;58.2
78522;SHT31;67819;51.972;5.678;2023-05-24T08:27:44;15.2;57.0
78522;SHT31;67819;51.972;5.678;2023-05-24T08:30:13;15.3;55.9
78522;SHT31;67819;51.972;5.678;2023-05-24T08:32:42;15.4;54.3
78522;SHT31;67819;51.972;5.678;2023-05-24T08:35:10;15.4;54.0
78522;SHT31;67819;51.972;5.678;2023-05-24T08:37:39;15.4;54.8
78522;SHT31;67819;51.972;5.678;2023-05-24T08:40:08;15.4;54.7
78522;SHT31;67819;51.972;5.678;2023-05-24T08:42:37;15.4;53.2
78522;SHT31;67819;51.972;5.678;2023-05-24T08:45:09;15.4;53.1
78522;SHT31;67819;51.972;5.678;2023-05-24T08:47:40;15.3;54.1
78522;SHT31;67819;51.972;5.678;2023-05-24T08:50:10;15.3;52.6
78522;SHT31;67819;51.972;5.678;2023-05-24T08:52:41;15.3;54.7
78522;SHT31;67819;51.972;5.678;2023-05-24T08:55:10;15.4;54.7
78522;SHT31;67819;51.972;5.678;2023-05-24T08:57:39;15.4;54.4
78522;SHT31;67819;51.972;5.678;2023-05-24T09:00:10;15.5;53.6
78522;SHT31;67819;51.972;5.678;2023-05-24T09:02:40;15.6;53.3
78522;SHT31;67819;51.972;5.678;2023-05-24T09:05:10;15.7;53.3
78522;SHT31;67819;51.972;5.678;2023-05-24T09:07:41;15.7;54.0
78522;SHT31;67819;51.972;5.678;2023-05-24T09:10:11;15.8;55.3
78522;SHT31;67819;51.972;5.678;2023-05-24T09:12:44;15.8;55.2
78522;SHT31;67819;51.972;5.678;2023-05-24T09:15:15;15.9;53.4
78522;SHT31;67819;51.972;5.678;2023-05-24T09:17:44;16.0;52.7
78522;SHT31;67819;51.972;5.678;2023-05-24T09:20:13;16.1;54.7
78522;SHT31;67819;51.972;5.678;2023-05-24T09:22:42;16.2;52.5
78522;SHT31;67819;51.972;5.678;2023-05-24T09:25:12;16.3;49.5
78522;SHT31;67819;51.972;5.678;2023-05-24T09:27:47;16.3;51.2
78522;SHT31;67819;51.972;5.678;2023-05-24T09:30:16;16.3;50.0
78522;SHT31;67819;51.972;5.678;2023-05-24T09:32:55;16.2;50.6
78522;SHT31;67819;51.972;5.678;2023-05-24T09:35:25;16.2;50.3
78522;SHT31;67819;51.972;5.678;2023-05-24T09:37:55;16.1;51.1
78522;SHT31;67819;51.972;5.678;2023-05-24T09:40:26;16.1;52.2
78522;SHT31;67819;51.972;5.678;2023-05-24T09:43:06;16.1;51.6
78522;SHT31;67819;51.972;5.678;2023-05-24T09:45:40;16.1;51.3
78522;SHT31;67819;51.972;5.678;2023-05-24T09:48:13;16.0;51.7
78522;SHT31;67819;51.972;5.678;2023-05-24T09:50:43;16.0;51.5
78522;SHT31;67819;51.972;5.678;2023-05-24T09:53:15;16.0;52.1
78522;SHT31;67819;51.972;5.678;2023-05-24T09:55:44;16.0;51.5
78522;SHT31;67819;51.972;5.678;2023-05-24T09:58:16;15.9;51.2
78522;SHT31;67819;51.972;5.678;2023-05-24T10:00:44;15.9;52.3
78522;SHT31;67819;51.972;5.678;2023-05-24T10:03:13;15.9;52.7
78522;SHT31;67819;51.972;5.678;2023-05-24T10:05:43;15.9;52.2
78522;SHT31;67819;51.972;5.678;2023-05-24T10:08:14;15.9;50.6
78522;SHT31;67819;51.972;5.678;2023-05-24T10:10:44;15.9;50.0
78522;SHT31;67819;51.972;5.678;2023-05-24T10:13:14;15.9;51.7
78522;SHT31;67819;51.972;5.678;2023-05-24T10:15:43;15.9;50.8
78522;SHT31;67819;51.972;5.678;2023-05-24T10:18:12;15.9;51.0
78522;SHT31;67819;51.972;5.678;2023-05-24T10:20:41;15.9;52.6
78522;SHT31;67819;51.972;5.678;2023-05-24T10:23:14;15.9;51.1
78522;SHT31;67819;51.972;5.678;2023-05-24T10:25:50;15.9;51.2
78522;SHT31;67819;51.972;5.678;2023-05-24T10:28:21;16.0;50.8
78522;SHT31;67819;51.972;5.678;2023-05-24T10:31:04;16.0;51.0
78522;SHT31;67819;51.972;5.678;2023-05-24T10:33:36;16.0;52.2
78522;SHT31;67819;51.972;5.678;2023-05-24T10:36:06;16.1;51.8
78522;SHT31;67819;51.972;5.678;2023-05-24T10:38:38;16.1;52.2
78522;SHT31;67819;51.972;5.678;2023-05-24T10:41:08;16.2;51.3
78522;SHT31;67819;51.972;5.678;2023-05-24T10:43:37;16.3;50.1
78522;SHT31;67819;51.972;5.678;2023-05-24T10:46:08;16.3;49.7
78522;SHT31;67819;51.972;5.678;2023-05-24T10:48:41;16.3;48.6
78522;SHT31;67819;51.972;5.678;2023-05-24T10:53:14;16.4;49.3
78522;SHT31;67819;51.972;5.678;2023-05-24T10:56:02;16.5;49.1
78522;SHT31;67819;51.972;5.678;2023-05-24T10:59:00;16.6;50.0
78522;SHT31;67819;51.972;5.678;2023-05-24T11:01:32;16.6;50.1
78522;SHT31;67819;51.972;5.678;2023-05-24T11:04:07;16.7;49.4
78522;SHT31;67819;51.972;5.678;2023-05-24T11:06:54;16.8;48.9
78522;SHT31;67819;51.972;5.678;2023-05-24T11:09:24;16.8;48.7
78522;SHT31;67819;51.972;5.678;2023-05-24T11:11:56;16.9;48.9
78522;SHT31;67819;51.972;5.678;2023-05-24T11:14:31;16.9;48.5
78522;SHT31;67819;51.972;5.678;2023-05-24T11:17:01;16.9;48.5
78522;SHT31;67819;51.972;5.678;2023-05-24T11:19:33;16.9;48.5
78522;SHT31;67819;51.972;5.678;2023-05-24T11:22:05;16.9;48.0
78522;SHT31;67819;51.972;5.678;2023-05-24T11:24:34;17.0;47.9
78522;SHT31;67819;51.972;5.678;2023-05-24T11:27:03;17.0;49.8
78522;SHT31;67819;51.972;5.678;2023-05-24T11:29:43;17.0;48.8
78522;SHT31;67819;51.972;5.678;2023-05-24T11:32:14;17.1;48.7
78522;SHT31;67819;51.972;5.678;2023-05-24T11:34:44;17.1;48.1
78522;SHT31;67819;51.972;5.678;2023-05-24T11:37:12;17.1;48.0
78522;SHT31;67819;51.972;5.678;2023-05-24T11:39:41;17.1;48.1
78522;SHT31;67819;51.972;5.678;2023-05-24T11:42:10;17.1;46.9
78522;SHT31;67819;51.972;5.678;2023-05-24T11:44:39;17.1;47.1
78522;SHT31;67819;51.972;5.678;2023-05-24T11:47:08;17.0;47.3
78522;SHT31;67819;51.972;5.678;2023-05-24T11:49:37;16.9;47.0
78522;SHT31;67819;51.972;5.678;2023-05-24T11:52:06;16.9;46.9
78522;SHT31;67819;51.972;5.678;2023-05-24T11:54:35;16.9;48.1
78522;SHT31;67819;51.972;5.678;2023-05-24T11:57:04;16.8;50.1
78522;SHT31;67819;51.972;5.678;2023-05-24T11:59:33;16.8;48.7
78522;SHT31;67819;51.972;5.678;2023-05-24T12:02:04;16.9;48.2
78522;SHT31;67819;51.972;5.678;2023-05-24T12:04:34;16.9;47.7
78522;SHT31;67819;51.972;5.678;2023-05-24T12:07:02;16.9;48.5
78522;SHT31;67819;51.972;5.678;2023-05-24T12:09:31;17.0;49.2
78522;SHT31;67819;51.972;5.678;2023-05-24T12:11:59;17.0;48.1
78522;SHT31;67819;51.972;5.678;2023-05-24T12:14:29;17.1;47.9
78522;SHT31;67819;51.972;5.678;2023-05-24T12:17:00;17.3;48.5
78522;SHT31;67819;51.972;5.678;2023-05-24T12:19:31;17.4;47.5
78522;SHT31;67819;51.972;5.678;2023-05-24T12:22:03;17.5;47.3
78522;SHT31;67819;51.972;5.678;2023-05-24T12:24:36;17.6;48.8
78522;SHT31;67819;51.972;5.678;2023-05-24T12:27:04;17.7;47.8
78522;SHT31;67819;51.972;5.678;2023-05-24T12:29:35;17.8;46.5
78522;SHT31;67819;51.972;5.678;2023-05-24T12:32:08;17.8;46.5
78522;SHT31;67819;51.972;5.678;2023-05-24T12:34:39;17.9;46.9
78522;SHT31;67819;51.972;5.678;2023-05-24T12:37:09;17.9;47.2
78522;SHT31;67819;51.972;5.678;2023-05-24T12:39:39;17.9;47.1
78522;SHT31;67819;51.972;5.678;2023-05-24T12:42:09;18.0;46.8
78522;SHT31;67819;51.972;5.678;2023-05-24T12:44:39;18.0;46.4
78522;SHT31;67819;51.972;5.678;2023-05-24T12:47:09;18.0;46.5
78522;SHT31;67819;51.972;5.678;2023-05-24T12:49:37;18.0;45.9
78522;SHT31;67819;51.972;5.678;2023-05-24T12:52:06;17.9;45.7
78522;SHT31;67819;51.972;5.678;2023-05-24T12:54:34;17.8;47.0
78522;SHT31;67819;51.972;5.678;2023-05-24T12:57:03;17.8;46.5
78522;SHT31;67819;51.972;5.678;2023-05-24T12:59:32;17.8;48.0
78522;SHT31;67819;51.972;5.678;2023-05-24T13:02:03;17.9;47.9
78522;SHT31;67819;51.972;5.678;2023-05-24T13:04:31;18.2;47.5
78522;SHT31;67819;51.972;5.678;2023-05-24T13:07:02;18.5;46.9
78522;SHT31;67819;51.972;5.678;2023-05-24T13:09:31;19.0;45.2
78522;SHT31;67819;51.972;5.678;2023-05-24T13:12:01;19.2;44.3
78522;SHT31;67819;51.972;5.678;2023-05-24T13:14:31;19.3;44.4
78522;SHT31;67819;51.972;5.678;2023-05-24T13:16:59;19.4;42.9
78522;SHT31;67819;51.972;5.678;2023-05-24T13:19:28;19.5;42.7
78522;SHT31;67819;51.972;5.678;2023-05-24T13:21:57;19.6;42.9
78522;SHT31;67819;51.972;5.678;2023-05-24T13:24:26;19.7;42.3
78522;SHT31;67819;51.972;5.678;2023-05-24T13:26:55;19.7;42.7
78522;SHT31;67819;51.972;5.678;2023-05-24T13:29:23;19.7;41.2
78522;SHT31;67819;51.972;5.678;2023-05-24T13:31:53;19.7;41.7
78522;SHT31;67819;51.972;5.678;2023-05-24T13:34:21;19.5;42.2
78522;SHT31;67819;51.972;5.678;2023-05-24T13:36:52;19.3;42.8
78522;SHT31;67819;51.972;5.678;2023-05-24T13:39:22;19.0;43.4
78522;SHT31;67819;51.972;5.678;2023-05-24T13:41:51;18.9;43.2
78522;SHT31;67819;51.972;5.678;2023-05-24T13:44:19;18.7;43.4
78522;SHT31;67819;51.972;5.678;2023-05-24T13:46:49;18.6;43.2
78522;SHT31;67819;51.972;5.678;2023-05-24T13:49:17;18.5;43.8
78522;SHT31;67819;51.972;5.678;2023-05-24T13:51:46;18.4;44.2
78522;SHT31;67819;51.972;5.678;2023-05-24T13:54:14;18.2;45.3
78522;SHT31;67819;51.972;5.678;2023-05-24T13:56:43;18.1;45.9
78522;SHT31;67819;51.972;5.678;2023-05-24T13:59:14;18.1;45.5
78522;SHT31;67819;51.972;5.678;2023-05-24T14:01:46;18.0;45.8
78522;SHT31;67819;51.972;5.678;2023-05-24T14:04:15;17.9;45.8
78522;SHT31;67819;51.972;5.678;2023-05-24T14:06:45;17.8;45.7
78522;SHT31;67819;51.972;5.678;2023-05-24T14:09:13;17.8;46.7
78522;SHT31;67819;51.972;5.678;2023-05-24T14:11:42;17.7;45.5
78522;SHT31;67819;51.972;5.678;2023-05-24T14:14:11;17.6;46.3
78522;SHT31;67819;51.972;5.678;2023-05-24T14:16:39;17.6;46.2
78522;SHT31;67819;51.972;5.678;2023-05-24T14:19:08;17.5;46.7
78522;SHT31;67819;51.972;5.678;2023-05-24T14:21:36;17.4;46.5
78522;SHT31;67819;51.972;5.678;2023-05-24T14:24:06;17.4;47.1
78522;SHT31;67819;51.972;5.678;2023-05-24T14:26:35;17.3;46.8
78522;SHT31;67819;51.972;5.678;2023-05-24T14:29:04;17.3;47.2
78522;SHT31;67819;51.972;5.678;2023-05-24T14:31:32;17.2;46.7
78522;SHT31;67819;51.972;5.678;2023-05-24T14:34:06;17.2;47.1
78522;SHT31;67819;51.972;5.678;2023-05-24T14:36:35;17.1;47.3
78522;SHT31;67819;51.972;5.678;2023-05-24T14:39:06;17.1;47.8
78522;SHT31;67819;51.972;5.678;2023-05-24T14:41:35;17.1;47.2
78522;SHT31;67819;51.972;5.678;2023-05-24T14:44:06;17.0;48.2
78522;SHT31;67819;51.972;5.678;2023-05-24T14:46:34;17.0;47.7
78522;SHT31;67819;51.972;5.678;2023-05-24T14:49:03;17.0;48.0
78522;SHT31;67819;51.972;5.678;2023-05-24T14:51:32;17.0;47.5
78522;SHT31;67819;51.972;5.678;2023-05-24T14:54:01;17.0;47.2
78522;SHT31;67819;51.972;5.678;2023-05-24T14:56:30;17.0;47.2
78522;SHT31;67819;51.972;5.678;2023-05-24T14:58:58;17.0;46.4
78522;SHT31;67819;51.972;5.678;2023-05-24T15:01:27;17.0;47.1
78522;SHT31;67819;51.972;5.678;2023-05-24T15:03:56;17.0;48.0
78522;SHT31;67819;51.972;5.678;2023-05-24T15:06:25;17.0;48.5
78522;SHT31;67819;51.972;5.678;2023-05-24T15:08:55;17.0;48.0
78522;SHT31;67819;51.972;5.678;2023-05-24T15:11:23;17.1;48.5
78522;SHT31;67819;51.972;5.678;2023-05-24T15:13:52;17.1;48.9
78522;SHT31;67819;51.972;5.678;2023-05-24T15:16:24;17.1;48.9
78522;SHT31;67819;51.972;5.678;2023-05-24T15:18:53;17.1;49.3
78522;SHT31;67819;51.972;5.678;2023-05-24T15:21:22;17.1;48.7
78522;SHT31;67819;51.972;5.678;2023-05-24T15:23:51;17.1;48.5
78522;SHT31;67819;51.972;5.678;2023-05-24T15:26:19;17.1;49.0
78522;SHT31;67819;51.972;5.678;2023-05-24T15:28:48;17.1;49.4
78522;SHT31;67819;51.972;5.678;2023-05-24T15:31:17;17.2;49.0
78522;SHT31;67819;51.972;5.678;2023-05-24T15:33:45;17.1;47.9
78522;SHT31;67819;51.972;5.678;2023-05-24T15:36:16;17.1;48.0
78522;SHT31;67819;51.972;5.678;2023-05-24T15:38:45;17.1;49.5
78522;SHT31;67819;51.972;5.678;2023-05-24T15:41:13;17.2;49.6
78522;SHT31;67819;51.972;5.678;2023-05-24T15:43:42;17.2;48.7
78522;SHT31;67819;51.972;5.678;2023-05-24T15:46:11;17.2;49.7
78522;SHT31;67819;51.972;5.678;2023-05-24T15:48:39;17.2;48.5
78522;SHT31;67819;51.972;5.678;2023-05-24T15:51:08;17.2;49.0
78522;SHT31;67819;51.972;5.678;2023-05-24T15:53:37;17.2;49.7
78522;SHT31;67819;51.972;5.678;2023-05-24T15:56:07;17.2;49.1
78522;SHT31;67819;51.972;5.678;2023-05-24T15:58:37;17.2;48.3
78522;SHT31;67819;51.972;5.678;2023-05-24T16:01:06;17.2;48.5
78522;SHT31;67819;51.972;5.678;2023-05-24T16:03:35;17.2;49.0
78522;SHT31;67819;51.972;5.678;2023-05-24T16:06:04;17.2;48.2
78522;SHT31;67819;51.972;5.678;2023-05-24T16:08:33;17.2;48.7
78522;SHT31;67819;51.972;5.678;2023-05-24T16:11:03;17.1;48.6
78522;SHT31;67819;51.972;5.678;2023-05-24T16:13:33;17.1;48.6
78522;SHT31;67819;51.972;5.678;2023-05-24T16:16:02;17.1;48.8
78522;SHT31;67819;51.972;5.678;2023-05-24T16:18:31;17.0;49.3
78522;SHT31;67819;51.972;5.678;2023-05-24T16:21:02;17.0;50.0
78522;SHT31;67819;51.972;5.678;2023-05-24T16:23:32;17.0;50.0